< < Back
Terminal Aerodrome Forecast


Current Version              Previous Versions:   1  2  3  4  5  6  7  8  9  

Terminal Aerodrome Forecast

649
FTAK31 PAJN 242320
TAFAHN
TAF
PAHN 242320Z 2500/2524 13010KT P6SM OVC040
     FM250900 VRB05KT P6SM VCSH BKN025 OVC035
     FM252000 13008KT P6SM SCT030 BKN050
      AMD LTD TO CLD VIS AND WIND=



Latest METAR

635
SAUS70 KWBC 250854
MTRAHN
METAR KAHN 250851Z AUTO 00000KT 10SM CLR 16/14 A3018 RMK AO2 SLP213
T01610144 51001


USA.gov is the U.S. government's official web portal to all federal, state and local government web resources and services.